createdAt,value
2019-02-20T00:01:58.280Z,9.30
2019-02-20T00:04:24.959Z,9.77
2019-02-20T00:06:51.495Z,7.23
2019-02-20T00:09:18.162Z,7.87
2019-02-20T00:11:44.875Z,11.20
2019-02-20T00:14:11.491Z,8.87
2019-02-20T00:16:37.935Z,12.87
2019-02-20T00:19:04.367Z,11.07
2019-02-20T00:21:31.062Z,9.87
2019-02-20T00:23:57.747Z,13.20
2019-02-20T00:26:24.459Z,11.33
2019-02-20T00:28:51.259Z,10.03
2019-02-20T00:31:19.071Z,19.00
2019-02-20T00:33:45.502Z,14.90
2019-02-20T00:36:12.987Z,11.97
2019-02-20T00:38:39.835Z,13.30
2019-02-20T00:41:07.743Z,14.40
2019-02-20T00:43:34.520Z,13.43
2019-02-20T00:46:08.845Z,11.37
2019-02-20T00:48:37.266Z,12.50
2019-02-20T00:51:17.678Z,13.53
2019-02-20T00:53:52.035Z,8.60
2019-02-20T00:56:18.561Z,12.43
2019-02-20T00:58:45.363Z,6.67
2019-02-20T01:01:11.888Z,8.10
2019-02-20T01:03:38.433Z,10.13
2019-02-20T01:06:06.191Z,6.67
2019-02-20T01:08:32.783Z,6.17
2019-02-20T01:10:59.305Z,7.27
2019-02-20T01:13:25.826Z,7.67
2019-02-20T01:15:52.337Z,6.80
2019-02-20T01:18:19.008Z,6.73
2019-02-20T01:20:45.519Z,7.50
2019-02-20T01:23:12.049Z,11.47
2019-02-20T01:25:38.534Z,12.83
2019-02-20T01:28:05.327Z,10.63
2019-02-20T01:30:32.022Z,10.83
2019-02-20T01:32:58.546Z,8.37
2019-02-20T01:35:25.098Z,10.77
2019-02-20T01:37:51.865Z,7.97
2019-02-20T01:40:18.495Z,9.57
2019-02-20T01:42:45.209Z,11.37
2019-02-20T01:45:11.851Z,14.20
2019-02-20T01:47:38.632Z,17.43
2019-02-20T01:50:06.065Z,15.63
2019-02-20T01:52:32.578Z,16.67
2019-02-20T01:54:59.071Z,18.80
2019-02-20T01:57:25.601Z,13.97
2019-02-20T01:59:52.369Z,19.73
2019-02-20T02:02:18.872Z,11.87
2019-02-20T02:04:45.512Z,11.80
2019-02-20T02:07:12.306Z,17.10
2019-02-20T02:09:38.991Z,17.73
2019-02-20T02:12:06.418Z,14.13
2019-02-20T02:14:33.289Z,15.87
2019-02-20T02:17:00.172Z,14.53
2019-02-20T02:19:26.678Z,14.77
2019-02-20T02:21:53.477Z,13.97
2019-02-20T02:24:20.096Z,16.93
2019-02-20T02:26:46.525Z,19.37
2019-02-20T02:29:13.070Z,17.67
2019-02-20T02:31:40.022Z,18.30
2019-02-20T02:34:06.567Z,15.30
2019-02-20T02:36:33.164Z,23.53
2019-02-20T02:38:59.703Z,20.80
2019-02-20T02:41:26.153Z,21.07
2019-02-20T02:43:52.961Z,15.57
2019-02-20T02:46:19.486Z,19.27
2019-02-20T02:48:46.013Z,19.73
2019-02-20T02:51:12.419Z,22.73
2019-02-20T02:53:39.231Z,15.63
2019-02-20T02:56:05.634Z,19.83
2019-02-20T02:58:32.130Z,22.77
2019-02-20T03:00:58.691Z,20.97
2019-02-20T03:03:25.173Z,16.63
2019-02-20T03:05:51.712Z,17.47
2019-02-20T03:08:18.241Z,10.70
2019-02-20T03:10:44.752Z,18.63
2019-02-20T03:13:11.594Z,17.17
2019-02-20T03:15:39.366Z,18.77
2019-02-20T03:18:05.794Z,14.83
2019-02-20T03:20:33.614Z,14.90
2019-02-20T03:23:00.473Z,13.03
2019-02-20T03:25:26.987Z,9.30
2019-02-20T03:27:53.512Z,15.33
2019-02-20T03:30:20.301Z,11.40
2019-02-20T03:32:46.817Z,16.90
2019-02-20T03:35:13.467Z,20.00
2019-02-20T03:37:40.019Z,8.27
2019-02-20T03:40:07.500Z,8.83
2019-02-20T03:42:35.063Z,9.07
2019-02-20T03:45:01.484Z,8.03
2019-02-20T03:47:28.020Z,12.30
2019-02-20T03:49:54.528Z,25.03
2019-02-20T03:52:21.050Z,11.00
2019-02-20T03:54:47.551Z,12.30
2019-02-20T03:57:14.257Z,15.83
2019-02-20T03:59:40.766Z,17.30
2019-02-20T04:02:07.555Z,12.97
2019-02-20T04:04:34.051Z,10.07
2019-02-20T04:07:00.597Z,9.63
2019-02-20T04:09:27.432Z,8.67
2019-02-20T04:11:53.932Z,7.03
2019-02-20T04:14:20.575Z,8.73
2019-02-20T04:16:47.103Z,16.53
2019-02-20T04:19:13.954Z,8.00
2019-02-20T04:21:40.397Z,6.28
2019-02-20T04:24:07.031Z,5.23
2019-02-20T04:26:35.370Z,5.80
2019-02-20T04:29:02.094Z,6.50
2019-02-20T04:31:28.880Z,6.90
2019-02-20T04:33:55.657Z,10.53
2019-02-20T04:36:22.463Z,7.10
2019-02-20T04:38:49.148Z,8.27
2019-02-20T04:41:15.605Z,8.80
2019-02-20T04:43:42.108Z,9.60
2019-02-20T04:46:08.908Z,9.03
2019-02-20T04:48:35.327Z,6.83
2019-02-20T04:51:02.030Z,8.53
2019-02-20T04:53:28.432Z,7.93
2019-02-20T04:55:55.840Z,11.65
2019-02-20T04:58:22.659Z,11.10
2019-02-20T05:00:49.545Z,11.23
2019-02-20T05:03:16.044Z,11.87
2019-02-20T05:05:42.654Z,10.73
2019-02-20T05:08:09.476Z,11.40
2019-02-20T05:10:36.962Z,8.03
2019-02-20T05:13:03.796Z,9.83
2019-02-20T05:15:30.309Z,9.13
2019-02-20T05:17:57.823Z,9.07
2019-02-20T05:20:24.575Z,9.63
2019-02-20T05:22:51.126Z,9.17
2019-02-20T05:25:17.648Z,23.03
2019-02-20T05:27:44.589Z,7.77
2019-02-20T05:30:11.528Z,9.57
2019-02-20T05:32:38.335Z,10.90
2019-02-20T05:35:05.151Z,13.77
2019-02-20T05:37:31.951Z,13.60
2019-02-20T05:39:58.375Z,16.03
2019-02-20T05:42:24.818Z,14.73
2019-02-20T05:44:51.264Z,17.00
2019-02-20T05:47:18.032Z,15.17
2019-02-20T05:49:44.828Z,15.70
2019-02-20T05:52:11.238Z,16.43
2019-02-20T05:54:38.065Z,15.07
2019-02-20T05:57:04.917Z,11.33
2019-02-20T05:59:31.720Z,14.57
2019-02-20T06:01:59.226Z,10.53
2019-02-20T06:04:26.642Z,12.87
2019-02-20T06:06:53.506Z,12.85
2019-02-20T06:09:20.151Z,12.83
2019-02-20T06:11:46.741Z,12.07
2019-02-20T06:14:13.182Z,10.82
2019-02-20T06:16:39.795Z,14.33
2019-02-20T06:19:06.275Z,11.60
2019-02-20T06:21:32.835Z,10.73
2019-02-20T06:23:59.367Z,10.58
2019-02-20T06:26:25.875Z,15.27
2019-02-20T06:28:52.438Z,14.25
2019-02-20T06:31:19.271Z,20.57
2019-02-20T06:33:45.800Z,13.73
2019-02-20T06:36:12.310Z,12.20
2019-02-20T06:38:38.937Z,15.07
2019-02-20T06:41:06.459Z,9.60
2019-02-20T06:43:33.251Z,9.43
2019-02-20T06:45:59.689Z,10.95
2019-02-20T06:48:26.120Z,10.05
2019-02-20T06:50:52.628Z,19.67
2019-02-20T06:53:19.560Z,9.65
2019-02-20T06:55:46.186Z,11.22
2019-02-20T06:58:12.803Z,9.00
2019-02-20T07:00:39.650Z,11.05
2019-02-20T07:03:08.423Z,10.98
2019-02-20T07:05:36.747Z,21.55
2019-02-20T07:08:29.252Z,12.57
2019-02-20T07:11:22.047Z,14.35
2019-02-20T07:14:01.097Z,10.70
2019-02-20T07:16:49.526Z,14.45
2019-02-20T07:19:19.859Z,20.20
2019-02-20T07:21:56.507Z,19.07
2019-02-20T07:24:33.253Z,10.07
2019-02-20T07:27:21.784Z,17.07
2019-02-20T07:29:58.843Z,16.47
2019-02-20T07:32:25.361Z,16.00
2019-02-20T07:34:51.786Z,20.73
2019-02-20T07:37:18.349Z,24.30
2019-02-20T07:39:46.080Z,25.50
2019-02-20T07:42:13.866Z,34.47
2019-02-20T07:44:40.382Z,39.90
2019-02-20T07:47:07.154Z,45.80
2019-02-20T07:49:33.710Z,37.07
2019-02-20T07:52:00.588Z,36.63
2019-02-20T07:54:27.393Z,37.97
2019-02-20T07:56:53.895Z,34.77
2019-02-20T07:59:20.714Z,31.20
2019-02-20T08:01:47.114Z,38.93
2019-02-20T08:04:13.728Z,41.97
2019-02-20T08:06:40.240Z,49.57
2019-02-20T08:09:06.904Z,65.60
2019-02-20T08:11:35.566Z,55.47
2019-02-20T08:14:02.083Z,54.10
2019-02-20T08:16:29.896Z,31.43
2019-02-20T08:18:56.341Z,28.47
2019-02-20T08:21:23.200Z,20.40
2019-02-20T08:23:49.885Z,24.70
2019-02-20T08:26:16.401Z,16.23
2019-02-20T08:28:42.930Z,15.30
2019-02-20T08:31:09.526Z,14.90
2019-02-20T08:33:35.969Z,16.77
2019-02-20T08:36:02.776Z,17.13
2019-02-20T08:38:29.282Z,16.10
2019-02-20T08:40:57.105Z,11.27
2019-02-20T08:43:23.923Z,13.13
2019-02-20T08:45:50.798Z,13.03
2019-02-20T08:48:17.500Z,11.97
2019-02-20T08:50:44.008Z,13.63
2019-02-20T08:53:11.801Z,10.00
2019-02-20T08:55:38.320Z,12.03
2019-02-20T08:58:04.852Z,13.83
2019-02-20T09:00:31.454Z,10.50
2019-02-20T09:02:58.263Z,11.43
2019-02-20T09:05:24.996Z,11.83
2019-02-20T09:07:51.512Z,10.30
2019-02-20T09:10:19.027Z,12.77
2019-02-20T09:12:45.795Z,9.63
2019-02-20T09:15:12.515Z,10.93
2019-02-20T09:17:39.020Z,12.03
2019-02-20T09:20:08.408Z,9.97
2019-02-20T09:22:34.799Z,9.77
2019-02-20T09:25:01.528Z,10.87
2019-02-20T09:27:28.445Z,10.10
2019-02-20T09:29:54.951Z,8.43
2019-02-20T09:32:21.398Z,9.13
2019-02-20T09:34:47.951Z,12.93
2019-02-20T09:37:14.363Z,15.63
2019-02-20T09:39:40.777Z,9.87
2019-02-20T09:42:07.281Z,9.50
2019-02-20T09:44:41.055Z,14.07
2019-02-20T09:47:07.576Z,7.80
2019-02-20T09:49:34.086Z,10.77
2019-02-20T09:52:00.597Z,8.43
2019-02-20T09:54:27.023Z,8.77
2019-02-20T09:56:53.768Z,6.90
2019-02-20T09:59:20.273Z,11.63
2019-02-20T10:01:46.899Z,11.17
2019-02-20T10:04:13.396Z,12.87
2019-02-20T10:06:40.347Z,10.17
2019-02-20T10:09:06.909Z,13.93
2019-02-20T10:11:34.627Z,8.77
2019-02-20T10:14:01.059Z,14.00
2019-02-20T10:16:27.566Z,8.20
2019-02-20T10:18:53.976Z,9.60
2019-02-20T10:21:20.752Z,11.03
2019-02-20T10:23:47.255Z,8.37
2019-02-20T10:26:13.664Z,7.80
2019-02-20T10:28:40.212Z,10.30
2019-02-20T10:31:08.049Z,14.07
2019-02-20T10:33:34.563Z,10.60
2019-02-20T10:36:01.088Z,10.83
2019-02-20T10:38:28.357Z,9.33
2019-02-20T10:40:55.273Z,7.90
2019-02-20T10:43:21.682Z,10.77
2019-02-20T10:45:48.179Z,8.97
2019-02-20T10:48:14.876Z,11.30
2019-02-20T10:50:41.395Z,15.73
2019-02-20T10:53:08.220Z,12.67
2019-02-20T10:55:34.718Z,10.57
2019-02-20T10:58:02.251Z,10.83
2019-02-20T11:00:29.095Z,8.57
2019-02-20T11:02:56.091Z,8.20
2019-02-20T11:05:23.864Z,9.07
2019-02-20T11:07:50.373Z,11.50
2019-02-20T11:10:19.013Z,14.20
2019-02-20T11:12:46.609Z,7.87
2019-02-20T11:15:13.275Z,9.23
2019-02-20T11:17:39.859Z,8.30
2019-02-20T11:20:08.881Z,11.43
2019-02-20T11:22:35.418Z,13.20
2019-02-20T11:25:02.282Z,10.70
2019-02-20T11:27:28.895Z,6.07
2019-02-20T11:29:55.487Z,9.13
2019-02-20T11:32:21.925Z,6.07
2019-02-20T11:34:48.774Z,7.20
2019-02-20T11:37:15.459Z,7.63
2019-02-20T11:39:41.867Z,6.30
2019-02-20T11:42:08.423Z,7.20
2019-02-20T11:44:35.297Z,5.63
2019-02-20T11:47:01.951Z,6.03
2019-02-20T11:49:28.559Z,8.23
2019-02-20T11:51:55.063Z,6.33
2019-02-20T11:54:22.563Z,6.43
2019-02-20T11:56:49.394Z,8.13
2019-02-20T11:59:15.894Z,12.57
2019-02-20T12:01:42.708Z,6.60
2019-02-20T12:04:09.656Z,6.47
2019-02-20T12:06:36.322Z,6.13
2019-02-20T12:09:04.313Z,6.10
2019-02-20T12:11:32.127Z,7.27
2019-02-20T12:13:59.861Z,6.23
2019-02-20T12:16:27.324Z,6.33
2019-02-20T12:18:54.409Z,8.83
2019-02-20T12:21:21.508Z,9.03
2019-02-20T12:23:48.039Z,6.87
2019-02-20T12:26:14.640Z,6.73
2019-02-20T12:28:41.316Z,7.33
2019-02-20T12:31:07.782Z,9.00
2019-02-20T12:33:35.420Z,7.43
2019-02-20T12:36:02.243Z,4.70
2019-02-20T12:38:28.905Z,7.17
2019-02-20T12:40:55.459Z,6.90
2019-02-20T12:43:22.088Z,6.57
2019-02-20T12:45:49.079Z,6.03
2019-02-20T12:48:15.819Z,7.43
2019-02-20T12:50:42.263Z,6.33
2019-02-20T12:53:08.690Z,6.40
2019-02-20T12:55:35.145Z,5.47
2019-02-20T12:58:01.955Z,6.50
2019-02-20T13:00:28.946Z,7.37
2019-02-20T13:02:55.712Z,6.57
2019-02-20T13:05:23.259Z,7.50
2019-02-20T13:07:49.802Z,8.57
2019-02-20T13:10:16.567Z,7.80
2019-02-20T13:12:43.477Z,8.80
2019-02-20T13:15:10.883Z,10.03
2019-02-20T13:17:37.711Z,8.80
2019-02-20T13:20:06.548Z,6.17
2019-02-20T13:22:33.339Z,7.30
2019-02-20T13:24:59.759Z,5.67
2019-02-20T13:27:26.178Z,6.60
2019-02-20T13:29:52.918Z,4.20
2019-02-20T13:32:19.510Z,5.50
2019-02-20T13:34:46.763Z,6.43
2019-02-20T13:37:13.618Z,6.50
2019-02-20T13:39:40.383Z,7.13
2019-02-20T13:42:06.951Z,10.37
2019-02-20T13:44:34.889Z,5.37
2019-02-20T13:47:01.778Z,3.93
2019-02-20T13:49:28.284Z,4.43
2019-02-20T13:51:54.870Z,4.27
2019-02-20T13:54:21.427Z,4.13
2019-02-20T13:56:47.928Z,5.77
2019-02-20T13:59:14.554Z,4.53
2019-02-20T14:01:41.263Z,5.20
2019-02-20T14:04:08.307Z,5.10
2019-02-20T14:06:34.810Z,4.03
2019-02-20T14:09:01.636Z,4.47
2019-02-20T14:11:32.282Z,6.10
2019-02-20T14:13:59.128Z,4.77
2019-02-20T14:16:25.886Z,2.67
2019-02-20T14:18:52.577Z,2.83
2019-02-20T14:21:19.517Z,4.43
2019-02-20T14:23:46.494Z,4.10
2019-02-20T14:26:13.029Z,8.70
2019-02-20T14:28:39.798Z,7.73
2019-02-20T14:31:07.131Z,5.90
2019-02-20T14:33:33.995Z,5.60
2019-02-20T14:36:01.636Z,4.67
2019-02-20T14:38:28.275Z,6.03
2019-02-20T14:40:54.786Z,5.30
2019-02-20T14:43:21.521Z,4.70
2019-02-20T14:45:48.060Z,4.37
2019-02-20T14:48:14.516Z,4.70
2019-02-20T14:50:41.393Z,6.27
2019-02-20T14:53:07.889Z,8.80
2019-02-20T14:55:34.410Z,7.57
2019-02-20T14:58:00.918Z,4.90
2019-02-20T15:00:28.205Z,5.50
2019-02-20T15:02:55.517Z,17.23
2019-02-20T15:05:24.260Z,35.87
2019-02-20T15:07:51.092Z,13.37
2019-02-20T15:10:17.592Z,12.40
2019-02-20T15:12:44.099Z,16.10
2019-02-20T15:15:11.349Z,8.67
2019-02-20T15:17:38.340Z,6.67
2019-02-20T15:20:06.837Z,5.10
2019-02-20T15:22:33.835Z,7.43
2019-02-20T15:25:00.698Z,4.30
2019-02-20T15:27:28.839Z,5.20
2019-02-20T15:29:55.585Z,6.80
2019-02-20T15:32:23.161Z,4.67
2019-02-20T15:34:51.035Z,5.23
2019-02-20T15:37:17.642Z,4.33
2019-02-20T15:39:44.519Z,4.33
2019-02-20T15:42:11.359Z,5.67
2019-02-20T15:44:38.209Z,4.40
2019-02-20T15:47:04.837Z,6.63
2019-02-20T15:49:31.624Z,4.43
2019-02-20T15:51:58.164Z,4.27
2019-02-20T15:54:24.904Z,5.77
2019-02-20T15:56:51.401Z,3.97
2019-02-20T15:59:17.918Z,6.33
2019-02-20T16:01:45.605Z,4.17
2019-02-20T16:04:12.234Z,4.10
2019-02-20T16:06:38.914Z,5.47
2019-02-20T16:09:05.619Z,4.33
2019-02-20T16:11:34.042Z,5.27
2019-02-20T16:14:00.559Z,8.07
2019-02-20T16:16:28.257Z,6.83
2019-02-20T16:18:55.107Z,4.87
2019-02-20T16:21:23.190Z,5.40
2019-02-20T16:23:49.786Z,5.33
2019-02-20T16:26:16.583Z,7.00
2019-02-20T16:28:43.605Z,7.60
2019-02-20T16:31:10.367Z,8.97
2019-02-20T16:33:37.114Z,6.67
2019-02-20T16:36:03.618Z,6.23
2019-02-20T16:38:30.116Z,6.97
2019-02-20T16:40:58.218Z,5.87
2019-02-20T16:43:25.018Z,6.87
2019-02-20T16:45:51.849Z,7.13
2019-02-20T16:48:18.646Z,6.23
2019-02-20T16:50:45.450Z,6.80
2019-02-20T16:53:11.943Z,6.40
2019-02-20T16:55:38.800Z,4.97
2019-02-20T16:58:06.381Z,9.67
2019-02-20T17:00:33.534Z,5.73
2019-02-20T17:03:00.068Z,7.23
2019-02-20T17:05:26.844Z,5.60
2019-02-20T17:07:53.485Z,4.50
2019-02-20T17:10:20.278Z,4.40
2019-02-20T17:12:47.094Z,4.05
2019-02-20T17:15:15.746Z,6.90
2019-02-20T17:17:42.754Z,7.17
2019-02-20T17:20:12.507Z,6.80
2019-02-20T17:22:39.271Z,6.53
2019-02-20T17:25:08.018Z,8.40
2019-02-20T17:27:34.516Z,7.57
2019-02-20T17:30:03.020Z,5.40
2019-02-20T17:32:29.839Z,9.33
2019-02-20T17:34:56.456Z,7.40
2019-02-20T17:37:23.177Z,5.37
2019-02-20T17:39:49.680Z,5.63
2019-02-20T17:42:16.470Z,5.03
2019-02-20T17:44:43.005Z,7.23
2019-02-20T17:47:09.504Z,8.90
2019-02-20T17:49:36.302Z,5.30
2019-02-20T17:52:03.120Z,4.70
2019-02-20T17:54:30.894Z,5.13
2019-02-20T17:56:57.730Z,4.17
2019-02-20T17:59:24.303Z,4.53
2019-02-20T18:01:50.975Z,6.90
2019-02-20T18:04:17.925Z,7.93
2019-02-20T18:06:45.870Z,14.10
2019-02-20T18:09:12.517Z,9.90
2019-02-20T18:11:39.304Z,10.63
2019-02-20T18:14:06.023Z,11.20
2019-02-20T18:16:32.535Z,7.60
2019-02-20T18:18:59.061Z,8.57
2019-02-20T18:21:25.486Z,7.37
2019-02-20T18:23:52.429Z,6.23
2019-02-20T18:26:19.999Z,5.37
2019-02-20T18:28:46.887Z,4.67
2019-02-20T18:31:13.447Z,4.30
2019-02-20T18:33:39.946Z,5.40
2019-02-20T18:36:06.376Z,5.13
2019-02-20T18:38:33.900Z,5.13
2019-02-20T18:41:00.736Z,4.77
2019-02-20T18:43:27.349Z,5.83
2019-02-20T18:45:55.168Z,4.47
2019-02-20T18:48:21.700Z,5.20
2019-02-20T18:50:48.205Z,6.00
2019-02-20T18:53:15.031Z,5.93
2019-02-20T18:55:42.744Z,6.30
2019-02-20T18:58:09.617Z,5.47
2019-02-20T19:00:36.615Z,5.13
2019-02-20T19:03:03.521Z,6.20
2019-02-20T19:05:30.455Z,9.23
2019-02-20T19:07:57.329Z,4.70
2019-02-20T19:10:33.332Z,8.60
2019-02-20T19:13:18.745Z,6.77
2019-02-20T19:15:58.040Z,5.90
2019-02-20T19:18:34.258Z,5.87
2019-02-20T19:21:07.579Z,6.30
2019-02-20T19:24:11.715Z,8.20
2019-02-20T19:26:51.924Z,13.37
2019-02-20T19:29:25.556Z,8.47
2019-02-20T19:32:24.470Z,7.33
2019-02-20T19:35:01.144Z,9.40
2019-02-20T19:37:34.723Z,7.67
2019-02-20T19:40:20.923Z,8.20
2019-02-20T19:43:03.588Z,7.27
2019-02-20T19:45:54.995Z,8.40
2019-02-20T19:48:28.312Z,6.63
2019-02-20T19:51:01.906Z,7.87
2019-02-20T19:53:32.344Z,10.10
2019-02-20T19:56:11.737Z,11.10
2019-02-20T19:59:03.376Z,11.00
2019-02-20T20:01:52.883Z,7.33
2019-02-20T20:04:23.285Z,12.27
2019-02-20T20:07:08.283Z,7.83
2019-02-20T20:09:45.360Z,10.47
2019-02-20T20:12:38.104Z,9.70
2019-02-20T20:15:08.378Z,10.47
2019-02-20T20:18:02.980Z,6.27
2019-02-20T20:20:51.371Z,7.33
2019-02-20T20:23:48.647Z,8.70
2019-02-20T20:26:38.906Z,7.03
2019-02-20T20:29:12.272Z,8.10
2019-02-20T20:32:00.843Z,7.13
2019-02-20T20:34:59.054Z,7.30
2019-02-20T20:37:35.006Z,7.97
2019-02-20T20:40:22.523Z,9.10
2019-02-20T20:42:55.911Z,7.50
2019-02-20T20:45:38.214Z,5.43
2019-02-20T20:48:28.190Z,7.10
2019-02-20T20:51:16.774Z,7.27
2019-02-20T20:53:53.219Z,7.30
2019-02-20T20:56:26.022Z,6.27
2019-02-20T20:59:23.429Z,7.43
2019-02-20T21:02:02.328Z,15.60
2019-02-20T21:04:41.690Z,24.20
2019-02-20T21:07:38.717Z,16.80
2019-02-20T21:10:11.766Z,17.33
2019-02-20T21:13:04.613Z,16.73
2019-02-20T21:15:37.962Z,11.63
2019-02-20T21:18:23.516Z,11.63
2019-02-20T21:21:14.087Z,12.37
2019-02-20T21:23:59.006Z,12.07
2019-02-20T21:26:40.129Z,8.53
2019-02-20T21:29:10.727Z,15.37
2019-02-20T21:31:53.759Z,11.77
2019-02-20T21:34:57.711Z,11.77
2019-02-20T21:38:03.967Z,19.70
2019-02-20T21:40:37.389Z,12.50
2019-02-20T21:43:34.714Z,10.70
2019-02-20T21:46:32.376Z,12.90
2019-02-20T21:49:18.527Z,12.07
2019-02-20T21:51:51.767Z,12.57
2019-02-20T21:54:37.111Z,10.73
2019-02-20T21:57:13.258Z,8.37
2019-02-20T21:59:46.739Z,9.37
2019-02-20T22:02:31.798Z,11.23
2019-02-20T22:05:14.630Z,9.17
2019-02-20T22:08:02.823Z,11.87
2019-02-20T22:10:45.288Z,10.43
2019-02-20T22:13:25.741Z,10.27
2019-02-20T22:16:18.497Z,8.53
2019-02-20T22:18:49.067Z,10.67
2019-02-20T22:21:19.594Z,10.10
2019-02-20T22:23:49.815Z,9.97
2019-02-20T22:26:39.470Z,12.60
2019-02-20T22:29:35.384Z,14.37
2019-02-20T22:32:17.472Z,15.57
2019-02-20T22:34:59.961Z,13.07
2019-02-20T22:37:47.895Z,13.93
2019-02-20T22:40:21.314Z,12.63
2019-02-20T22:42:54.440Z,12.77
2019-02-20T22:45:30.491Z,13.83
2019-02-20T22:48:23.683Z,15.33
2019-02-20T22:51:09.124Z,14.97
2019-02-20T22:53:54.616Z,13.33
2019-02-20T22:56:37.332Z,19.00
2019-02-20T22:59:13.980Z,13.20
2019-02-20T23:01:55.952Z,13.50
2019-02-20T23:04:26.278Z,13.17
2019-02-20T23:07:05.642Z,10.40
2019-02-20T23:09:39.244Z,10.83
2019-02-20T23:12:21.911Z,9.33
2019-02-20T23:14:56.450Z,9.10
2019-02-20T23:17:23.490Z,10.57
2019-02-20T23:19:49.910Z,17.67
2019-02-20T23:22:16.435Z,13.27
2019-02-20T23:24:42.852Z,12.10
2019-02-20T23:27:10.167Z,13.07
2019-02-20T23:29:36.606Z,13.83
2019-02-20T23:32:03.553Z,11.83
2019-02-20T23:34:31.348Z,12.60
2019-02-20T23:36:57.911Z,12.80
2019-02-20T23:39:24.596Z,15.73
2019-02-20T23:41:51.165Z,15.83
2019-02-20T23:44:17.705Z,17.73
2019-02-20T23:46:44.174Z,17.27
2019-02-20T23:49:10.600Z,11.70
2019-02-20T23:51:37.385Z,13.73
2019-02-20T23:54:03.904Z,11.90
2019-02-20T23:56:30.697Z,15.60
2019-02-20T23:58:57.191Z,15.63
